Weather at Chiure Airport

Public forecast

Using degrees Celsius for public forecast. Weather courtesy of forecast.io.

Closest aviation weather report (METAR) to Chiure Airport

Report is more than 6 hours old.

Closest report is Pemba Airport, 49.0 nm (90.7 km) ENE.

2022/11/14 15:00 (retrieved 2 years ago)

FQPB 141500Z 06012KT 9999 FEW020 26/23 Q1012

Closest aviation forecast (TAF) to Chiure Airport

Forecast is more than 12 hours old.

Closest forecast is Pemba Airport, 49.0 nm (90.7 km) ENE.

2023/02/22 18:00 (retrieved 1 year ago)

TAF FQPB 221600Z 2218/2318 34010KT 9999 FEW020 FEW030CB TX32/2313Z TN24/2303Z PROB30 TEMPO 2218/2223 5000 TSRA SCT020 FEW030CB BECMG 2300/2302 30008KT BECMG 2312/2314 03014KT